sensor_id;sensor_type;location;lat;lon;timestamp;pressure;altitude;pressure_sealevel;temperature;humidity
20793;BME280;10556;-33.662;151.094;2023-12-20T00:02:05;99086.13;;;19.47;100.00
20793;BME280;10556;-33.662;151.094;2023-12-20T00:07:07;99085.16;;;19.48;100.00
20793;BME280;10556;-33.662;151.094;2023-12-20T00:12:12;99082.03;;;19.44;100.00
20793;BME280;10556;-33.662;151.094;2023-12-20T00:17:17;99088.13;;;19.43;100.00
20793;BME280;10556;-33.662;151.094;2023-12-20T00:22:20;99083.56;;;19.47;100.00
20793;BME280;10556;-33.662;151.094;2023-12-20T00:27:24;99082.88;;;19.45;100.00
20793;BME280;10556;-33.662;151.094;2023-12-20T00:32:27;99082.72;;;19.46;100.00
20793;BME280;10556;-33.662;151.094;2023-12-20T00:37:29;99091.00;;;19.50;100.00
20793;BME280;10556;-33.662;151.094;2023-12-20T00:42:34;99094.25;;;19.52;100.00
20793;BME280;10556;-33.662;151.094;2023-12-20T00:47:37;99089.25;;;19.50;100.00
20793;BME280;10556;-33.662;151.094;2023-12-20T00:52:40;99091.00;;;19.50;100.00
20793;BME280;10556;-33.662;151.094;2023-12-20T00:57:44;99081.91;;;19.46;100.00
20793;BME280;10556;-33.662;151.094;2023-12-20T01:02:47;99080.53;;;19.42;100.00
20793;BME280;10556;-33.662;151.094;2023-12-20T01:07:49;99087.59;;;19.40;100.00
20793;BME280;10556;-33.662;151.094;2023-12-20T01:12:54;99078.38;;;19.37;100.00
20793;BME280;10556;-33.662;151.094;2023-12-20T01:17:56;99072.63;;;19.34;100.00
20793;BME280;10556;-33.662;151.094;2023-12-20T01:22:59;99075.38;;;19.32;100.00
20793;BME280;10556;-33.662;151.094;2023-12-20T01:28:04;99079.72;;;19.32;100.00
20793;BME280;10556;-33.662;151.094;2023-12-20T01:33:06;99089.66;;;19.27;100.00
20793;BME280;10556;-33.662;151.094;2023-12-20T01:38:09;99086.13;;;19.28;100.00
20793;BME280;10556;-33.662;151.094;2023-12-20T01:43:14;99093.59;;;19.31;100.00
20793;BME280;10556;-33.662;151.094;2023-12-20T01:48:17;99088.84;;;19.26;100.00
20793;BME280;10556;-33.662;151.094;2023-12-20T01:53:21;99086.94;;;19.18;100.00
20793;BME280;10556;-33.662;151.094;2023-12-20T01:58:28;99076.47;;;19.20;100.00
20793;BME280;10556;-33.662;151.094;2023-12-20T02:03:31;99070.22;;;19.23;100.00
20793;BME280;10556;-33.662;151.094;2023-12-20T02:08:34;99063.44;;;19.22;100.00
20793;BME280;10556;-33.662;151.094;2023-12-20T02:13:38;99061.09;;;19.18;100.00
20793;BME280;10556;-33.662;151.094;2023-12-20T02:18:46;99063.84;;;19.17;100.00
20793;BME280;10556;-33.662;151.094;2023-12-20T02:23:50;99069.53;;;19.21;100.00
20793;BME280;10556;-33.662;151.094;2023-12-20T02:28:53;99071.19;;;19.22;100.00
20793;BME280;10556;-33.662;151.094;2023-12-20T02:33:56;99068.59;;;19.12;100.00
20793;BME280;10556;-33.662;151.094;2023-12-20T02:39:01;99062.91;;;19.08;100.00
20793;BME280;10556;-33.662;151.094;2023-12-20T02:44:04;99059.22;;;19.01;100.00
20793;BME280;10556;-33.662;151.094;2023-12-20T02:49:07;99064.81;;;18.97;100.00
20793;BME280;10556;-33.662;151.094;2023-12-20T02:54:12;99061.53;;;18.95;100.00
20793;BME280;10556;-33.662;151.094;2023-12-20T02:59:14;99063.69;;;18.99;100.00
20793;BME280;10556;-33.662;151.094;2023-12-20T03:04:17;99065.22;;;18.92;100.00
20793;BME280;10556;-33.662;151.094;2023-12-20T03:09:21;99062.75;;;18.91;100.00
20793;BME280;10556;-33.662;151.094;2023-12-20T03:14:24;99059.63;;;18.87;100.00
20793;BME280;10556;-33.662;151.094;2023-12-20T03:19:27;99059.75;;;18.86;100.00
20793;BME280;10556;-33.662;151.094;2023-12-20T03:24:31;99052.72;;;18.88;100.00
20793;BME280;10556;-33.662;151.094;2023-12-20T03:29:34;99050.66;;;18.82;100.00
20793;BME280;10556;-33.662;151.094;2023-12-20T03:34:36;99050.41;;;18.85;100.00
20793;BME280;10556;-33.662;151.094;2023-12-20T03:39:41;99050.53;;;18.83;100.00
20793;BME280;10556;-33.662;151.094;2023-12-20T03:44:43;99042.25;;;18.89;100.00
20793;BME280;10556;-33.662;151.094;2023-12-20T03:49:46;99044.28;;;18.86;100.00
20793;BME280;10556;-33.662;151.094;2023-12-20T03:54:50;99046.72;;;18.87;100.00
20793;BME280;10556;-33.662;151.094;2023-12-20T03:59:53;99048.50;;;18.87;100.00
20793;BME280;10556;-33.662;151.094;2023-12-20T04:04:56;99053.38;;;18.80;100.00
20793;BME280;10556;-33.662;151.094;2023-12-20T04:10:00;99056.53;;;18.84;100.00
20793;BME280;10556;-33.662;151.094;2023-12-20T04:15:03;99051.75;;;18.79;100.00
20793;BME280;10556;-33.662;151.094;2023-12-20T04:20:07;99049.84;;;18.81;100.00
20793;BME280;10556;-33.662;151.094;2023-12-20T04:25:15;99062.91;;;18.89;100.00
20793;BME280;10556;-33.662;151.094;2023-12-20T04:30:17;99052.84;;;18.86;100.00
20793;BME280;10556;-33.662;151.094;2023-12-20T04:35:20;99060.59;;;18.86;100.00
20793;BME280;10556;-33.662;151.094;2023-12-20T04:40:24;99070.91;;;18.77;100.00
20793;BME280;10556;-33.662;151.094;2023-12-20T04:45:30;99069.84;;;18.79;100.00
20793;BME280;10556;-33.662;151.094;2023-12-20T04:50:33;99060.31;;;18.70;100.00
20793;BME280;10556;-33.662;151.094;2023-12-20T04:55:37;99059.50;;;18.69;100.00
20793;BME280;10556;-33.662;151.094;2023-12-20T05:00:40;99053.53;;;18.69;100.00
20793;BME280;10556;-33.662;151.094;2023-12-20T05:05:43;99064.78;;;18.68;100.00
20793;BME280;10556;-33.662;151.094;2023-12-20T05:10:47;99058.28;;;18.64;100.00
20793;BME280;10556;-33.662;151.094;2023-12-20T05:15:50;99055.69;;;18.54;100.00
20793;BME280;10556;-33.662;151.094;2023-12-20T05:20:52;99055.91;;;18.51;100.00
20793;BME280;10556;-33.662;151.094;2023-12-20T05:25:57;99061.50;;;18.56;100.00
20793;BME280;10556;-33.662;151.094;2023-12-20T05:31:00;99059.63;;;18.58;100.00
20793;BME280;10556;-33.662;151.094;2023-12-20T05:36:03;99062.19;;;18.58;100.00
20793;BME280;10556;-33.662;151.094;2023-12-20T05:41:07;99065.88;;;18.56;100.00
20793;BME280;10556;-33.662;151.094;2023-12-20T05:46:11;99064.75;;;18.49;100.00
20793;BME280;10556;-33.662;151.094;2023-12-20T05:51:14;99070.72;;;18.49;100.00
20793;BME280;10556;-33.662;151.094;2023-12-20T05:56:18;99076.00;;;18.48;100.00
20793;BME280;10556;-33.662;151.094;2023-12-20T06:01:21;99072.19;;;18.42;100.00
20793;BME280;10556;-33.662;151.094;2023-12-20T06:06:24;99074.09;;;18.40;100.00
20793;BME280;10556;-33.662;151.094;2023-12-20T06:11:28;99057.09;;;18.38;100.00
20793;BME280;10556;-33.662;151.094;2023-12-20T06:16:31;99059.84;;;18.36;100.00
20793;BME280;10556;-33.662;151.094;2023-12-20T06:21:34;99063.09;;;18.38;100.00
20793;BME280;10556;-33.662;151.094;2023-12-20T06:26:39;99062.41;;;18.36;100.00
20793;BME280;10556;-33.662;151.094;2023-12-20T06:31:42;99053.69;;;18.37;100.00
20793;BME280;10556;-33.662;151.094;2023-12-20T06:36:44;99086.47;;;18.37;100.00
20793;BME280;10556;-33.662;151.094;2023-12-20T06:41:49;99080.31;;;18.38;100.00
20793;BME280;10556;-33.662;151.094;2023-12-20T06:46:51;99091.47;;;18.38;100.00
20793;BME280;10556;-33.662;151.094;2023-12-20T06:51:54;99078.97;;;18.34;100.00
20793;BME280;10556;-33.662;151.094;2023-12-20T06:56:58;99084.38;;;18.21;100.00
20793;BME280;10556;-33.662;151.094;2023-12-20T07:02:01;99090.75;;;18.17;100.00
20793;BME280;10556;-33.662;151.094;2023-12-20T07:07:04;99094.25;;;18.16;100.00
20793;BME280;10556;-33.662;151.094;2023-12-20T07:12:08;99108.09;;;18.15;100.00
20793;BME280;10556;-33.662;151.094;2023-12-20T07:17:11;99129.94;;;18.11;100.00
20793;BME280;10556;-33.662;151.094;2023-12-20T07:22:14;99136.03;;;18.10;100.00
20793;BME280;10556;-33.662;151.094;2023-12-20T07:27:18;99124.09;;;18.09;100.00
20793;BME280;10556;-33.662;151.094;2023-12-20T07:32:21;99108.75;;;18.07;100.00
20793;BME280;10556;-33.662;151.094;2023-12-20T07:37:24;99114.16;;;18.04;100.00
20793;BME280;10556;-33.662;151.094;2023-12-20T07:42:28;99112.22;;;17.97;100.00
20793;BME280;10556;-33.662;151.094;2023-12-20T07:47:31;99108.84;;;17.96;100.00
20793;BME280;10556;-33.662;151.094;2023-12-20T07:52:33;99117.94;;;18.00;100.00
20793;BME280;10556;-33.662;151.094;2023-12-20T07:57:38;99150.13;;;18.06;100.00
20793;BME280;10556;-33.662;151.094;2023-12-20T08:02:41;99161.28;;;18.06;100.00
20793;BME280;10556;-33.662;151.094;2023-12-20T08:07:43;99171.47;;;18.08;100.00
20793;BME280;10556;-33.662;151.094;2023-12-20T08:12:48;99180.00;;;18.08;100.00
20793;BME280;10556;-33.662;151.094;2023-12-20T08:17:51;99177.41;;;18.08;100.00
20793;BME280;10556;-33.662;151.094;2023-12-20T08:22:53;99189.53;;;18.08;100.00
20793;BME280;10556;-33.662;151.094;2023-12-20T08:27:58;99189.53;;;18.08;100.00
20793;BME280;10556;-33.662;151.094;2023-12-20T08:33:01;99193.16;;;18.05;100.00
20793;BME280;10556;-33.662;151.094;2023-12-20T08:38:03;99202.59;;;17.95;100.00
20793;BME280;10556;-33.662;151.094;2023-12-20T08:43:08;99220.91;;;17.92;100.00
20793;BME280;10556;-33.662;151.094;2023-12-20T08:48:11;99233.75;;;17.82;100.00
20793;BME280;10556;-33.662;151.094;2023-12-20T08:53:13;99232.09;;;17.81;100.00
20793;BME280;10556;-33.662;151.094;2023-12-20T08:58:18;99245.09;;;17.80;100.00
20793;BME280;10556;-33.662;151.094;2023-12-20T09:03:20;99232.66;;;17.85;100.00
20793;BME280;10556;-33.662;151.094;2023-12-20T09:08:23;99226.69;;;17.84;100.00
20793;BME280;10556;-33.662;151.094;2023-12-20T09:13:27;99247.44;;;17.83;100.00
20793;BME280;10556;-33.662;151.094;2023-12-20T09:18:30;99256.00;;;17.83;100.00
20793;BME280;10556;-33.662;151.094;2023-12-20T09:23:33;99245.69;;;17.83;100.00
20793;BME280;10556;-33.662;151.094;2023-12-20T09:28:37;99257.75;;;17.83;100.00
20793;BME280;10556;-33.662;151.094;2023-12-20T09:33:40;99272.16;;;17.85;100.00
20793;BME280;10556;-33.662;151.094;2023-12-20T09:38:43;99274.72;;;17.85;100.00
20793;BME280;10556;-33.662;151.094;2023-12-20T09:43:49;99291.28;;;17.83;100.00
20793;BME280;10556;-33.662;151.094;2023-12-20T09:48:54;99292.09;;;17.83;100.00
20793;BME280;10556;-33.662;151.094;2023-12-20T09:53:57;99292.09;;;17.83;100.00
20793;BME280;10556;-33.662;151.094;2023-12-20T09:59:03;99289.25;;;17.86;100.00
20793;BME280;10556;-33.662;151.094;2023-12-20T10:04:06;99295.91;;;17.89;100.00
20793;BME280;10556;-33.662;151.094;2023-12-20T10:09:10;99296.19;;;17.86;100.00
20793;BME280;10556;-33.662;151.094;2023-12-20T10:14:15;99297.69;;;17.89;100.00
20793;BME280;10556;-33.662;151.094;2023-12-20T10:19:21;99294.53;;;17.85;100.00
20793;BME280;10556;-33.662;151.094;2023-12-20T10:24:23;99285.88;;;17.86;100.00
20793;BME280;10556;-33.662;151.094;2023-12-20T10:29:28;99277.44;;;17.84;100.00
20793;BME280;10556;-33.662;151.094;2023-12-20T10:34:33;99286.22;;;17.81;100.00
20793;BME280;10556;-33.662;151.094;2023-12-20T10:39:36;99286.03;;;17.73;100.00
20793;BME280;10556;-33.662;151.094;2023-12-20T10:44:40;99274.47;;;17.68;100.00
20793;BME280;10556;-33.662;151.094;2023-12-20T10:49:43;99272.16;;;17.65;100.00
20793;BME280;10556;-33.662;151.094;2023-12-20T10:54:47;99271.06;;;17.67;100.00
20793;BME280;10556;-33.662;151.094;2023-12-20T10:59:54;99275.84;;;17.72;100.00
20793;BME280;10556;-33.662;151.094;2023-12-20T11:05:04;99271.78;;;17.69;100.00
20793;BME280;10556;-33.662;151.094;2023-12-20T11:10:16;99277.03;;;17.68;100.00
20793;BME280;10556;-33.662;151.094;2023-12-20T11:15:23;99278.59;;;17.59;100.00
20793;BME280;10556;-33.662;151.094;2023-12-20T11:20:36;99268.84;;;17.63;100.00
20793;BME280;10556;-33.662;151.094;2023-12-20T11:25:53;99256.69;;;17.65;100.00
20793;BME280;10556;-33.662;151.094;2023-12-20T11:30:58;99265.19;;;17.65;100.00
20793;BME280;10556;-33.662;151.094;2023-12-20T11:36:03;99262.41;;;17.68;100.00
20793;BME280;10556;-33.662;151.094;2023-12-20T11:41:07;99257.09;;;17.70;100.00
20793;BME280;10556;-33.662;151.094;2023-12-20T11:46:11;99262.97;;;17.72;100.00
20793;BME280;10556;-33.662;151.094;2023-12-20T11:51:15;99257.91;;;17.70;100.00
20793;BME280;10556;-33.662;151.094;2023-12-20T11:56:17;99256.31;;;17.69;100.00
20793;BME280;10556;-33.662;151.094;2023-12-20T12:01:23;99256.97;;;17.71;100.00
20793;BME280;10556;-33.662;151.094;2023-12-20T12:06:26;99246.69;;;17.71;100.00
20793;BME280;10556;-33.662;151.094;2023-12-20T12:11:29;99231.31;;;17.70;100.00
20793;BME280;10556;-33.662;151.094;2023-12-20T12:16:33;99227.97;;;17.69;100.00
20793;BME280;10556;-33.662;151.094;2023-12-20T12:21:36;99214.09;;;17.70;100.00
20793;BME280;10556;-33.662;151.094;2023-12-20T12:26:39;99208.50;;;17.65;100.00
20793;BME280;10556;-33.662;151.094;2023-12-20T12:31:43;99206.88;;;17.64;100.00
20793;BME280;10556;-33.662;151.094;2023-12-20T12:36:46;99213.66;;;17.65;100.00
20793;BME280;10556;-33.662;151.094;2023-12-20T12:41:50;99212.03;;;17.64;100.00
20793;BME280;10556;-33.662;151.094;2023-12-20T12:46:55;99216.50;;;17.62;100.00
20793;BME280;10556;-33.662;151.094;2023-12-20T12:51:58;99205.38;;;17.62;100.00
20793;BME280;10556;-33.662;151.094;2023-12-20T12:57:00;99202.31;;;17.57;100.00
20793;BME280;10556;-33.662;151.094;2023-12-20T13:02:05;99199.44;;;17.50;100.00
20793;BME280;10556;-33.662;151.094;2023-12-20T13:07:08;99196.97;;;17.49;100.00
20793;BME280;10556;-33.662;151.094;2023-12-20T13:12:11;99206.56;;;17.47;100.00
20793;BME280;10556;-33.662;151.094;2023-12-20T13:17:16;99199.44;;;17.50;100.00
20793;BME280;10556;-33.662;151.094;2023-12-20T13:22:19;99187.34;;;17.51;100.00
20793;BME280;10556;-33.662;151.094;2023-12-20T13:27:21;99177.72;;;17.53;100.00
20793;BME280;10556;-33.662;151.094;2023-12-20T13:32:28;99156.19;;;17.54;100.00
20793;BME280;10556;-33.662;151.094;2023-12-20T13:37:31;99138.53;;;17.49;100.00
20793;BME280;10556;-33.662;151.094;2023-12-20T13:42:33;99137.16;;;17.45;100.00
20793;BME280;10556;-33.662;151.094;2023-12-20T13:47:38;99140.78;;;17.42;100.00
20793;BME280;10556;-33.662;151.094;2023-12-20T13:52:41;99134.94;;;17.40;100.00
20793;BME280;10556;-33.662;151.094;2023-12-20T13:57:43;99134.50;;;17.35;100.00
20793;BME280;10556;-33.662;151.094;2023-12-20T14:02:48;99142.34;;;17.34;100.00
20793;BME280;10556;-33.662;151.094;2023-12-20T14:07:51;99139.06;;;17.32;100.00
20793;BME280;10556;-33.662;151.094;2023-12-20T14:12:53;99132.16;;;17.32;100.00
20793;BME280;10556;-33.662;151.094;2023-12-20T14:17:58;99127.72;;;17.34;100.00
20793;BME280;10556;-33.662;151.094;2023-12-20T14:23:01;99120.22;;;17.31;100.00
20793;BME280;10556;-33.662;151.094;2023-12-20T14:28:04;99101.63;;;17.28;100.00
20793;BME280;10556;-33.662;151.094;2023-12-20T14:33:08;99089.31;;;17.31;100.00
20793;BME280;10556;-33.662;151.094;2023-12-20T14:38:11;99093.03;;;17.38;100.00
20793;BME280;10556;-33.662;151.094;2023-12-20T14:43:14;99081.53;;;17.42;100.00
20793;BME280;10556;-33.662;151.094;2023-12-20T14:48:18;99075.44;;;17.43;100.00
20793;BME280;10556;-33.662;151.094;2023-12-20T14:53:21;99085.63;;;17.45;100.00
20793;BME280;10556;-33.662;151.094;2023-12-20T14:58:23;99092.38;;;17.46;100.00
20793;BME280;10556;-33.662;151.094;2023-12-20T15:03:28;99094.03;;;17.47;100.00
20793;BME280;10556;-33.662;151.094;2023-12-20T15:08:31;99083.72;;;17.47;100.00
20793;BME280;10556;-33.662;151.094;2023-12-20T15:13:33;99081.28;;;17.46;100.00
20793;BME280;10556;-33.662;151.094;2023-12-20T15:18:38;99080.31;;;17.47;100.00
20793;BME280;10556;-33.662;151.094;2023-12-20T15:23:41;99093.91;;;17.49;100.00
20793;BME280;10556;-33.662;151.094;2023-12-20T15:28:43;99100.69;;;17.50;100.00
20793;BME280;10556;-33.662;151.094;2023-12-20T15:33:48;99086.84;;;17.51;100.00
20793;BME280;10556;-33.662;151.094;2023-12-20T15:38:50;99084.53;;;17.48;100.00
20793;BME280;10556;-33.662;151.094;2023-12-20T15:43:53;99080.47;;;17.45;100.00
20793;BME280;10556;-33.662;151.094;2023-12-20T15:48:58;99066.88;;;17.43;100.00
20793;BME280;10556;-33.662;151.094;2023-12-20T15:54:00;99074.22;;;17.48;100.00
20793;BME280;10556;-33.662;151.094;2023-12-20T15:59:03;99069.06;;;17.48;100.00
20793;BME280;10556;-33.662;151.094;2023-12-20T16:04:07;99081.03;;;17.49;100.00
20793;BME280;10556;-33.662;151.094;2023-12-20T16:09:10;99090.00;;;17.54;100.00
20793;BME280;10556;-33.662;151.094;2023-12-20T16:14:13;99087.91;;;17.59;100.00
20793;BME280;10556;-33.662;151.094;2023-12-20T16:19:17;99086.81;;;17.62;100.00
20793;BME280;10556;-33.662;151.094;2023-12-20T16:24:20;99078.69;;;17.66;100.00
20793;BME280;10556;-33.662;151.094;2023-12-20T16:29:23;99090.66;;;17.67;100.00
20793;BME280;10556;-33.662;151.094;2023-12-20T16:34:27;99086.19;;;17.69;100.00
20793;BME280;10556;-33.662;151.094;2023-12-20T16:39:30;99081.03;;;17.69;100.00
20793;BME280;10556;-33.662;151.094;2023-12-20T16:44:32;99083.03;;;17.66;100.00
20793;BME280;10556;-33.662;151.094;2023-12-20T16:49:37;99084.94;;;17.64;100.00
20793;BME280;10556;-33.662;151.094;2023-12-20T16:54:40;99092.09;;;17.60;100.00
20793;BME280;10556;-33.662;151.094;2023-12-20T16:59:43;99089.28;;;17.63;100.00
20793;BME280;10556;-33.662;151.094;2023-12-20T17:04:48;99091.97;;;17.62;100.00
20793;BME280;10556;-33.662;151.094;2023-12-20T17:09:51;99089.50;;;17.60;100.00
20793;BME280;10556;-33.662;151.094;2023-12-20T17:14:54;99092.25;;;17.59;100.00
20793;BME280;10556;-33.662;151.094;2023-12-20T17:19:58;99090.47;;;17.59;100.00
20793;BME280;10556;-33.662;151.094;2023-12-20T17:25:01;99089.16;;;17.65;100.00
20793;BME280;10556;-33.662;151.094;2023-12-20T17:30:04;99083.03;;;17.66;100.00
20793;BME280;10556;-33.662;151.094;2023-12-20T17:35:09;99096.06;;;17.64;100.00
20793;BME280;10556;-33.662;151.094;2023-12-20T17:40:12;99095.47;;;17.61;100.00
20793;BME280;10556;-33.662;151.094;2023-12-20T17:45:15;99108.25;;;17.62;100.00
20793;BME280;10556;-33.662;151.094;2023-12-20T17:50:20;99103.81;;;17.64;100.00
20793;BME280;10556;-33.662;151.094;2023-12-20T17:55:22;99107.44;;;17.62;100.00
20793;BME280;10556;-33.662;151.094;2023-12-20T18:00:28;99106.75;;;17.60;100.00
20793;BME280;10556;-33.662;151.094;2023-12-20T18:05:33;99100.78;;;17.59;100.00
20793;BME280;10556;-33.662;151.094;2023-12-20T18:10:36;99106.38;;;17.64;100.00
20793;BME280;10556;-33.662;151.094;2023-12-20T18:15:39;99107.59;;;17.70;100.00
20793;BME280;10556;-33.662;151.094;2023-12-20T18:20:43;99099.63;;;17.73;100.00
20793;BME280;10556;-33.662;151.094;2023-12-20T18:25:48;99098.44;;;17.77;100.00
20793;BME280;10556;-33.662;151.094;2023-12-20T18:30:51;99100.19;;;17.76;100.00
20793;BME280;10556;-33.662;151.094;2023-12-20T18:35:55;99105.47;;;17.75;100.00
20793;BME280;10556;-33.662;151.094;2023-12-20T18:40:58;99115.94;;;17.73;100.00
20793;BME280;10556;-33.662;151.094;2023-12-20T18:46:01;99117.56;;;17.74;100.00
20793;BME280;10556;-33.662;151.094;2023-12-20T18:51:06;99122.44;;;17.77;100.00
20793;BME280;10556;-33.662;151.094;2023-12-20T18:56:08;99135.06;;;17.80;100.00
20793;BME280;10556;-33.662;151.094;2023-12-20T19:01:11;99137.41;;;17.83;100.00
20793;BME280;10556;-33.662;151.094;2023-12-20T19:06:15;99131.19;;;17.86;100.00
20793;BME280;10556;-33.662;151.094;2023-12-20T19:11:18;99131.72;;;17.90;100.00
20793;BME280;10556;-33.662;151.094;2023-12-20T19:16:21;99138.41;;;17.92;100.00
20793;BME280;10556;-33.662;151.094;2023-12-20T19:21:26;99139.34;;;17.91;100.00
20793;BME280;10556;-33.662;151.094;2023-12-20T19:26:28;99134.91;;;17.93;100.00
20793;BME280;10556;-33.662;151.094;2023-12-20T19:31:31;99140.72;;;17.95;100.00
20793;BME280;10556;-33.662;151.094;2023-12-20T19:36:36;99144.66;;;17.99;100.00
20793;BME280;10556;-33.662;151.094;2023-12-20T19:41:39;99146.06;;;18.03;100.00
20793;BME280;10556;-33.662;151.094;2023-12-20T19:46:42;99151.63;;;18.08;100.00
20793;BME280;10556;-33.662;151.094;2023-12-20T19:51:46;99162.53;;;18.12;100.00
20793;BME280;10556;-33.662;151.094;2023-12-20T19:56:49;99153.84;;;18.13;100.00
20793;BME280;10556;-33.662;151.094;2023-12-20T20:01:51;99160.63;;;18.14;100.00
20793;BME280;10556;-33.662;151.094;2023-12-20T20:06:56;99163.91;;;18.16;100.00
20793;BME280;10556;-33.662;151.094;2023-12-20T20:11:59;99167.16;;;18.18;100.00
20793;BME280;10556;-33.662;151.094;2023-12-20T20:17:01;99166.91;;;18.21;100.00
20793;BME280;10556;-33.662;151.094;2023-12-20T20:22:06;99172.75;;;18.23;100.00
20793;BME280;10556;-33.662;151.094;2023-12-20T20:27:08;99175.09;;;18.26;100.00
20793;BME280;10556;-33.662;151.094;2023-12-20T20:32:11;99178.34;;;18.28;100.00
20793;BME280;10556;-33.662;151.094;2023-12-20T20:37:16;99178.09;;;18.31;100.00
20793;BME280;10556;-33.662;151.094;2023-12-20T20:42:18;99188.13;;;18.34;100.00
20793;BME280;10556;-33.662;151.094;2023-12-20T20:47:21;99192.09;;;18.38;100.00
20793;BME280;10556;-33.662;151.094;2023-12-20T20:52:26;99191.16;;;18.39;100.00
20793;BME280;10556;-33.662;151.094;2023-12-20T20:57:28;99197.94;;;18.40;100.00
20793;BME280;10556;-33.662;151.094;2023-12-20T21:02:31;99197.81;;;18.42;100.00
20793;BME280;10556;-33.662;151.094;2023-12-20T21:07:35;99208.00;;;18.43;100.00
20793;BME280;10556;-33.662;151.094;2023-12-20T21:12:38;99203.94;;;18.41;100.00
20793;BME280;10556;-33.662;151.094;2023-12-20T21:17:41;99214.81;;;18.44;100.00
20793;BME280;10556;-33.662;151.094;2023-12-20T21:22:46;99219.03;;;18.45;100.00
20793;BME280;10556;-33.662;151.094;2023-12-20T21:27:48;99219.56;;;18.49;100.00
20793;BME280;10556;-33.662;151.094;2023-12-20T21:32:51;99229.41;;;18.55;100.00
20793;BME280;10556;-33.662;151.094;2023-12-20T21:37:55;99229.84;;;18.60;100.00
20793;BME280;10556;-33.662;151.094;2023-12-20T21:42:58;99239.50;;;18.67;100.00
20793;BME280;10556;-33.662;151.094;2023-12-20T21:48:01;99231.78;;;18.67;100.00
20793;BME280;10556;-33.662;151.094;2023-12-20T21:53:06;99238.19;;;18.73;100.00
20793;BME280;10556;-33.662;151.094;2023-12-20T21:58:08;99232.91;;;18.75;100.00
20793;BME280;10556;-33.662;151.094;2023-12-20T22:03:11;99230.84;;;18.78;100.00
20793;BME280;10556;-33.662;151.094;2023-12-20T22:08:15;99224.47;;;18.82;100.00
20793;BME280;10556;-33.662;151.094;2023-12-20T22:13:18;99239.56;;;18.87;100.00
20793;BME280;10556;-33.662;151.094;2023-12-20T22:18:21;99262.31;;;18.93;100.00
20793;BME280;10556;-33.662;151.094;2023-12-20T22:23:25;99258.38;;;18.98;100.00
20793;BME280;10556;-33.662;151.094;2023-12-20T22:28:28;99263.25;;;19.01;100.00
20793;BME280;10556;-33.662;151.094;2023-12-20T22:33:31;99267.09;;;19.07;100.00
20793;BME280;10556;-33.662;151.094;2023-12-20T22:38:36;99270.22;;;19.10;100.00
20793;BME280;10556;-33.662;151.094;2023-12-20T22:43:38;99272.56;;;19.13;100.00
20793;BME280;10556;-33.662;151.094;2023-12-20T22:48:41;99280.97;;;19.15;100.00
20793;BME280;10556;-33.662;151.094;2023-12-20T22:53:45;99292.94;;;19.16;100.00
20793;BME280;10556;-33.662;151.094;2023-12-20T22:58:48;99286.44;;;19.22;100.00
20793;BME280;10556;-33.662;151.094;2023-12-20T23:03:51;99292.03;;;19.27;100.00
20793;BME280;10556;-33.662;151.094;2023-12-20T23:08:55;99292.84;;;19.28;100.00
20793;BME280;10556;-33.662;151.094;2023-12-20T23:13:58;99303.84;;;19.30;100.00
20793;BME280;10556;-33.662;151.094;2023-12-20T23:19:01;99300.31;;;19.31;100.00
20793;BME280;10556;-33.662;151.094;2023-12-20T23:24:06;99308.78;;;19.33;100.00
20793;BME280;10556;-33.662;151.094;2023-12-20T23:29:08;99296.66;;;19.33;100.00
20793;BME280;10556;-33.662;151.094;2023-12-20T23:34:11;99300.88;;;19.34;100.00
20793;BME280;10556;-33.662;151.094;2023-12-20T23:39:15;99304.97;;;19.37;100.00
20793;BME280;10556;-33.662;151.094;2023-12-20T23:44:18;99299.25;;;19.43;100.00
20793;BME280;10556;-33.662;151.094;2023-12-20T23:49:21;99300.94;;;19.53;100.00
20793;BME280;10556;-33.662;151.094;2023-12-20T23:54:25;99313.88;;;19.63;100.00
20793;BME280;10556;-33.662;151.094;2023-12-20T23:59:28;99311.81;;;19.67;100.00
